createdAt,value
2023-01-29T00:00:53.372Z,13.27
2023-01-29T00:03:56.732Z,13.43
2023-01-29T00:06:59.348Z,13.32
2023-01-29T00:10:02.093Z,13.37
2023-01-29T00:13:05.583Z,13.87
2023-01-29T00:16:08.673Z,13.23
2023-01-29T00:19:11.156Z,14.32
2023-01-29T00:22:13.794Z,14.13
2023-01-29T00:25:16.329Z,14.10
2023-01-29T00:28:19.394Z,13.30
2023-01-29T00:31:24.353Z,13.48
2023-01-29T00:34:27.185Z,13.50
2023-01-29T00:37:29.911Z,13.57
2023-01-29T00:40:52.463Z,13.43
2023-01-29T00:44:13.601Z,12.87
2023-01-29T00:47:33.329Z,13.43
2023-01-29T00:50:35.756Z,12.65
2023-01-29T00:53:38.473Z,13.50
2023-01-29T00:56:40.773Z,13.97
2023-01-29T00:59:43.473Z,14.17
2023-01-29T01:03:04.885Z,12.88
2023-01-29T01:06:10.546Z,13.25
2023-01-29T01:09:31.873Z,13.02
2023-01-29T01:12:36.792Z,12.87
2023-01-29T01:15:40.208Z,12.90
2023-01-29T01:18:43.243Z,16.12
2023-01-29T01:21:48.193Z,14.25
2023-01-29T01:24:50.875Z,12.32
2023-01-29T01:31:09.530Z,12.60
2023-01-29T01:34:12.022Z,12.50
2023-01-29T01:37:15.093Z,11.93
2023-01-29T01:40:21.357Z,13.32
2023-01-29T01:43:24.112Z,12.97
2023-01-29T01:46:37.867Z,12.33
2023-01-29T01:49:41.061Z,13.05
2023-01-29T01:52:47.424Z,12.02
2023-01-29T01:56:01.404Z,12.80
2023-01-29T01:59:07.044Z,13.97
2023-01-29T02:02:28.328Z,11.63
2023-01-29T02:05:52.735Z,12.20
2023-01-29T02:09:20.615Z,12.95
2023-01-29T02:12:23.392Z,12.45
2023-01-29T02:15:25.674Z,12.20
2023-01-29T02:18:28.345Z,11.90
2023-01-29T02:21:55.430Z,11.90
2023-01-29T02:25:23.376Z,12.43
2023-01-29T02:28:50.142Z,13.60
2023-01-29T02:32:01.957Z,12.77
2023-01-29T02:35:32.229Z,12.77
2023-01-29T02:38:52.018Z,12.20
2023-01-29T02:42:14.891Z,11.75
2023-01-29T02:45:30.312Z,12.48
2023-01-29T02:48:47.722Z,11.47
2023-01-29T02:52:14.267Z,13.23
2023-01-29T02:55:24.174Z,12.75
2023-01-29T02:58:36.163Z,12.02
2023-01-29T03:01:48.744Z,12.23
2023-01-29T03:04:58.447Z,11.83
2023-01-29T03:08:10.306Z,11.73
2023-01-29T03:11:15.018Z,11.90
2023-01-29T03:14:55.258Z,11.45
2023-01-29T03:18:05.368Z,11.68
2023-01-29T03:21:31.779Z,12.07
2023-01-29T03:24:59.232Z,12.07
2023-01-29T03:28:22.702Z,10.55
2023-01-29T03:31:47.116Z,11.52
2023-01-29T03:34:54.638Z,12.73
2023-01-29T03:37:57.466Z,10.27
2023-01-29T03:41:19.531Z,10.90
2023-01-29T03:44:34.849Z,11.07
2023-01-29T03:48:03.212Z,10.05
2023-01-29T03:51:35.338Z,10.63
2023-01-29T03:55:06.889Z,11.13
2023-01-29T03:58:37.098Z,10.23
2023-01-29T04:02:09.189Z,10.40
2023-01-29T04:05:20.228Z,10.73
2023-01-29T04:08:29.121Z,10.65
2023-01-29T04:11:36.348Z,11.07
2023-01-29T04:14:39.485Z,11.37
2023-01-29T04:17:48.829Z,11.52
2023-01-29T04:20:52.523Z,10.15
2023-01-29T04:23:55.639Z,9.75
2023-01-29T04:27:08.092Z,8.67
2023-01-29T04:30:35.889Z,10.03
2023-01-29T04:33:57.511Z,9.90
2023-01-29T04:37:27.485Z,8.63
2023-01-29T04:40:42.414Z,9.13
2023-01-29T04:43:59.478Z,9.60
2023-01-29T04:47:12.666Z,9.40
2023-01-29T04:50:28.333Z,9.77
2023-01-29T04:53:42.630Z,9.25
2023-01-29T04:57:04.847Z,8.65
2023-01-29T05:00:13.646Z,8.93
2023-01-29T05:03:17.016Z,8.03
2023-01-29T05:06:21.240Z,9.60
2023-01-29T05:09:25.928Z,8.80
2023-01-29T05:12:30.406Z,8.63
2023-01-29T05:15:44.385Z,8.30
2023-01-29T05:18:47.504Z,7.53
2023-01-29T05:21:50.603Z,7.85
2023-01-29T05:24:52.969Z,7.60
2023-01-29T05:28:11.994Z,7.37
2023-01-29T05:31:14.450Z,8.30
2023-01-29T05:34:17.318Z,8.13
2023-01-29T05:37:19.785Z,8.00
2023-01-29T05:40:23.063Z,7.55
2023-01-29T05:43:25.522Z,6.90
2023-01-29T05:46:28.179Z,7.13
2023-01-29T05:49:30.515Z,7.70
2023-01-29T05:52:33.219Z,6.75
2023-01-29T05:55:35.710Z,8.00
2023-01-29T05:58:38.835Z,7.53
2023-01-29T06:01:41.226Z,6.30
2023-01-29T06:04:43.947Z,7.37
2023-01-29T06:07:47.075Z,8.25
2023-01-29T06:10:49.665Z,7.28
2023-01-29T06:13:52.063Z,6.35
2023-01-29T06:16:54.775Z,7.20
2023-01-29T06:19:57.131Z,6.13
2023-01-29T06:23:00.096Z,7.70
2023-01-29T06:26:05.340Z,6.45
2023-01-29T06:29:07.957Z,6.85
2023-01-29T06:32:10.358Z,7.67
2023-01-29T06:35:12.998Z,7.10
2023-01-29T06:38:15.373Z,8.27
2023-01-29T06:41:19.547Z,8.10
2023-01-29T06:44:21.995Z,7.60
2023-01-29T06:47:25.135Z,7.17
2023-01-29T06:50:27.482Z,7.77
2023-01-29T06:53:30.645Z,7.82
2023-01-29T06:56:33.016Z,7.65
2023-01-29T06:59:35.607Z,7.60
2023-01-29T07:02:38.047Z,7.30
2023-01-29T07:05:40.619Z,7.60
2023-01-29T07:08:43.060Z,7.53
2023-01-29T07:11:45.744Z,7.35
2023-01-29T07:14:48.160Z,7.80
2023-01-29T07:18:01.725Z,7.77
2023-01-29T07:21:06.758Z,7.47
2023-01-29T07:24:09.550Z,6.80
2023-01-29T07:27:11.987Z,7.87
2023-01-29T07:30:15.074Z,7.53
2023-01-29T07:33:17.591Z,7.37
2023-01-29T07:36:20.253Z,7.00
2023-01-29T07:39:23.363Z,7.60
2023-01-29T07:42:26.096Z,6.85
2023-01-29T07:45:29.707Z,6.22
2023-01-29T07:48:32.351Z,6.90
2023-01-29T07:51:34.658Z,7.60
2023-01-29T07:54:37.299Z,7.95
2023-01-29T07:57:39.735Z,7.28
2023-01-29T08:00:42.553Z,6.28
2023-01-29T08:03:45.154Z,7.63
2023-01-29T08:06:47.505Z,6.90
2023-01-29T08:09:50.173Z,7.37
2023-01-29T08:13:00.153Z,6.68
2023-01-29T08:16:04.134Z,7.00
2023-01-29T08:19:06.604Z,7.57
2023-01-29T08:22:09.326Z,6.90
2023-01-29T08:25:12.036Z,6.93
2023-01-29T08:28:14.842Z,6.55
2023-01-29T08:31:20.755Z,5.60
2023-01-29T08:34:23.635Z,6.00
2023-01-29T08:37:26.051Z,6.93
2023-01-29T08:40:33.710Z,6.65
2023-01-29T08:43:37.085Z,5.80
2023-01-29T08:46:41.437Z,6.45
2023-01-29T08:49:44.086Z,5.80
2023-01-29T08:52:47.150Z,5.53
2023-01-29T08:55:49.479Z,5.18
2023-01-29T08:58:53.353Z,6.25
2023-01-29T09:01:55.714Z,5.87
2023-01-29T09:04:58.324Z,6.07
2023-01-29T09:08:01.013Z,5.97
2023-01-29T09:11:03.797Z,5.95
2023-01-29T09:14:06.431Z,5.95
2023-01-29T09:17:09.062Z,5.40
2023-01-29T09:20:11.770Z,5.53
2023-01-29T09:23:14.397Z,6.30
2023-01-29T09:26:16.744Z,7.05
2023-01-29T09:29:19.612Z,6.15
2023-01-29T09:32:49.725Z,4.90
2023-01-29T09:35:48.522Z,5.37
2023-01-29T09:38:50.874Z,5.20
2023-01-29T09:42:16.708Z,5.80
2023-01-29T09:45:25.330Z,3.80
2023-01-29T09:48:32.851Z,4.90
2023-01-29T09:51:44.716Z,5.40
2023-01-29T09:54:56.470Z,4.83
2023-01-29T09:58:00.819Z,4.65
2023-01-29T10:01:40.208Z,4.80
2023-01-29T10:04:56.800Z,4.57
2023-01-29T10:08:34.036Z,5.30
2023-01-29T10:11:42.768Z,4.67
2023-01-29T10:15:03.710Z,4.95
2023-01-29T10:18:24.650Z,4.87
2023-01-29T10:21:38.893Z,4.65
2023-01-29T10:24:55.554Z,4.40
2023-01-29T10:28:00.393Z,4.73
2023-01-29T10:31:14.703Z,5.00
2023-01-29T10:34:28.688Z,5.03
2023-01-29T10:37:39.517Z,5.07
2023-01-29T10:40:50.719Z,5.50
2023-01-29T10:43:53.272Z,4.70
2023-01-29T10:47:03.691Z,4.43
2023-01-29T10:50:44.916Z,4.37
2023-01-29T10:54:05.257Z,4.70
2023-01-29T10:57:28.170Z,4.70
2023-01-29T11:00:37.461Z,4.33
2023-01-29T11:03:40.202Z,5.10
2023-01-29T11:06:43.779Z,4.20
2023-01-29T11:09:57.346Z,4.32
2023-01-29T11:12:59.974Z,3.90
2023-01-29T11:16:05.240Z,4.17
2023-01-29T11:19:07.591Z,3.45
2023-01-29T11:22:14.967Z,3.33
2023-01-29T11:25:20.143Z,4.30
2023-01-29T11:28:40.461Z,3.97
2023-01-29T11:31:43.291Z,5.00
2023-01-29T11:35:22.333Z,4.30
2023-01-29T11:38:29.037Z,5.55
2023-01-29T11:41:43.866Z,4.62
2023-01-29T11:44:46.244Z,4.50
2023-01-29T11:47:56.988Z,4.30
2023-01-29T11:51:01.003Z,4.50
2023-01-29T11:54:06.551Z,4.12
2023-01-29T11:57:23.790Z,4.55
2023-01-29T12:00:28.851Z,4.33
2023-01-29T12:03:37.268Z,4.47
2023-01-29T12:06:44.087Z,4.55
2023-01-29T12:10:00.092Z,4.53
2023-01-29T12:13:15.830Z,4.03
2023-01-29T12:16:27.788Z,4.50
2023-01-29T12:19:43.798Z,3.70
2023-01-29T12:22:56.377Z,3.97
2023-01-29T12:26:05.359Z,3.78
2023-01-29T12:29:24.615Z,4.28
2023-01-29T12:32:49.768Z,3.83
2023-01-29T12:36:09.293Z,3.33
2023-01-29T12:39:17.702Z,3.70
2023-01-29T12:42:22.741Z,3.70
2023-01-29T12:45:29.332Z,4.53
2023-01-29T12:48:34.887Z,3.93
2023-01-29T12:51:46.688Z,4.10
2023-01-29T12:54:55.422Z,4.53
2023-01-29T12:58:04.301Z,3.80
2023-01-29T13:01:33.478Z,2.87
2023-01-29T13:04:41.231Z,4.00
2023-01-29T13:07:50.181Z,4.43
2023-01-29T13:10:54.856Z,4.10
2023-01-29T13:14:22.782Z,3.17
2023-01-29T13:17:36.468Z,3.85
2023-01-29T13:20:39.546Z,4.40
2023-01-29T13:23:57.790Z,3.77
2023-01-29T13:27:01.160Z,2.95
2023-01-29T13:30:04.561Z,3.87
2023-01-29T13:33:10.702Z,3.50
2023-01-29T13:36:19.211Z,4.13
2023-01-29T13:39:45.206Z,4.00
2023-01-29T13:42:49.963Z,3.50
2023-01-29T13:45:54.763Z,3.92
2023-01-29T13:49:01.325Z,3.60
2023-01-29T13:52:43.373Z,2.80
2023-01-29T13:55:45.689Z,3.80
2023-01-29T13:58:48.435Z,3.95
2023-01-29T14:01:50.997Z,4.30
2023-01-29T14:05:30.904Z,4.40
2023-01-29T14:08:37.899Z,4.47
2023-01-29T14:11:48.274Z,4.43
2023-01-29T14:14:59.219Z,3.72
2023-01-29T14:21:36.372Z,4.40
2023-01-29T14:24:43.069Z,4.47
2023-01-29T14:27:50.034Z,5.23
2023-01-29T14:30:53.432Z,3.97
2023-01-29T14:34:02.193Z,4.07
2023-01-29T14:37:25.343Z,4.40
2023-01-29T14:40:30.389Z,4.80
2023-01-29T14:43:33.172Z,4.57
2023-01-29T14:46:35.544Z,5.30
2023-01-29T14:50:26.335Z,4.32
2023-01-29T14:53:43.265Z,5.05
2023-01-29T14:56:58.980Z,4.83
2023-01-29T15:00:05.545Z,5.40
2023-01-29T15:03:18.386Z,5.07
2023-01-29T15:06:33.584Z,4.87
2023-01-29T15:09:41.797Z,4.95
2023-01-29T15:13:01.114Z,5.17
2023-01-29T15:16:19.128Z,4.67
2023-01-29T15:19:25.420Z,4.85
2023-01-29T15:22:30.464Z,5.22
2023-01-29T15:25:50.497Z,5.93
2023-01-29T15:29:04.121Z,5.00
2023-01-29T15:32:08.370Z,5.90
2023-01-29T15:36:06.401Z,5.90
2023-01-29T15:39:09.847Z,6.28
2023-01-29T15:42:23.475Z,5.53
2023-01-29T15:45:31.071Z,5.43
2023-01-29T15:48:40.805Z,5.23
2023-01-29T15:51:45.319Z,6.25
2023-01-29T15:54:48.546Z,5.28
2023-01-29T15:57:54.362Z,5.78
2023-01-29T16:00:59.138Z,5.70
2023-01-29T16:04:04.083Z,5.90
2023-01-29T16:07:07.385Z,6.05
2023-01-29T16:10:18.759Z,6.12
2023-01-29T16:13:24.325Z,5.97
2023-01-29T16:16:30.617Z,6.73
2023-01-29T16:19:33.348Z,6.80
2023-01-29T16:22:37.923Z,6.62
2023-01-29T16:25:40.724Z,6.45
2023-01-29T16:28:45.576Z,5.82
2023-01-29T16:31:52.099Z,6.10
2023-01-29T16:34:59.320Z,6.50
2023-01-29T16:38:06.810Z,5.12
2023-01-29T16:41:21.927Z,6.90
2023-01-29T16:44:36.539Z,7.43
2023-01-29T16:47:43.704Z,7.00
2023-01-29T16:50:54.723Z,6.80
2023-01-29T16:54:06.711Z,7.15
2023-01-29T16:57:19.711Z,7.72
2023-01-29T17:00:29.203Z,7.25
2023-01-29T17:03:34.416Z,6.80
2023-01-29T17:06:39.074Z,7.37
2023-01-29T17:09:42.609Z,7.07
2023-01-29T17:12:55.025Z,6.90
2023-01-29T17:16:04.710Z,7.28
2023-01-29T17:19:30.124Z,6.77
2023-01-29T17:22:34.304Z,7.20
2023-01-29T17:25:37.675Z,6.82
2023-01-29T17:28:41.656Z,5.55
2023-01-29T17:31:44.569Z,7.90
2023-01-29T17:34:47.165Z,7.33
2023-01-29T17:37:50.182Z,5.80
2023-01-29T17:40:58.284Z,7.35
2023-01-29T17:44:01.569Z,7.80
2023-01-29T17:47:05.526Z,7.35
2023-01-29T17:50:30.726Z,7.60
2023-01-29T17:53:45.662Z,7.93
2023-01-29T17:56:50.102Z,8.35
2023-01-29T17:59:52.682Z,7.37
2023-01-29T18:02:55.922Z,8.00
2023-01-29T18:05:59.230Z,8.10
2023-01-29T18:09:02.295Z,7.63
2023-01-29T18:12:10.000Z,8.35
2023-01-29T18:15:13.010Z,7.85
2023-01-29T18:18:19.584Z,8.25
2023-01-29T18:21:22.842Z,7.40
2023-01-29T18:24:26.672Z,8.37
2023-01-29T18:27:29.251Z,7.45
2023-01-29T18:30:32.592Z,7.80
2023-01-29T18:33:35.546Z,7.57
2023-01-29T18:36:38.450Z,7.70
2023-01-29T18:39:41.189Z,8.13
2023-01-29T18:42:45.453Z,7.62
2023-01-29T18:45:48.855Z,7.20
2023-01-29T18:48:51.839Z,7.55
2023-01-29T18:51:54.625Z,7.40
2023-01-29T18:54:57.596Z,7.47
2023-01-29T18:58:29.180Z,7.78
2023-01-29T19:01:23.710Z,7.82
2023-01-29T19:04:33.332Z,8.07
2023-01-29T19:07:43.170Z,8.07
2023-01-29T19:11:11.040Z,5.70
2023-01-29T19:14:33.357Z,7.07
2023-01-29T19:17:36.555Z,7.15
2023-01-29T19:20:42.717Z,6.95
2023-01-29T19:23:45.601Z,6.73
2023-01-29T19:26:49.350Z,6.57
2023-01-29T19:29:52.747Z,6.25
2023-01-29T19:32:55.567Z,7.10
2023-01-29T19:36:00.001Z,7.03
2023-01-29T19:39:03.597Z,6.77
2023-01-29T19:42:06.213Z,7.13
2023-01-29T19:45:10.008Z,5.47
2023-01-29T19:48:13.722Z,7.12
2023-01-29T19:51:16.796Z,7.15
2023-01-29T19:54:22.145Z,7.67
2023-01-29T19:57:25.574Z,6.57
2023-01-29T20:00:28.260Z,6.05
2023-01-29T20:03:31.174Z,7.57
2023-01-29T20:06:33.737Z,7.68
2023-01-29T20:09:38.885Z,7.03
2023-01-29T20:12:41.828Z,5.27
2023-01-29T20:15:49.746Z,6.40
2023-01-29T20:18:52.549Z,7.00
2023-01-29T20:21:55.462Z,7.12
2023-01-29T20:24:58.282Z,7.60
2023-01-29T20:28:01.571Z,7.47
2023-01-29T20:31:05.418Z,8.02
2023-01-29T20:34:08.320Z,8.40
2023-01-29T20:37:11.247Z,7.95
2023-01-29T20:40:15.591Z,7.37
2023-01-29T20:43:18.557Z,7.27
2023-01-29T20:46:21.734Z,9.23
2023-01-29T20:49:24.384Z,7.55
2023-01-29T20:52:27.370Z,7.87
2023-01-29T20:55:30.276Z,9.43
2023-01-29T20:58:33.780Z,8.50
2023-01-29T21:01:36.800Z,8.15
2023-01-29T21:04:39.557Z,8.23
2023-01-29T21:07:42.155Z,7.80
2023-01-29T21:10:48.096Z,8.00
2023-01-29T21:13:53.247Z,8.07
2023-01-29T21:16:56.116Z,8.93
2023-01-29T21:19:59.467Z,8.30
2023-01-29T21:23:05.273Z,8.50
2023-01-29T21:26:09.176Z,8.50
2023-01-29T21:29:12.934Z,8.77
2023-01-29T21:32:15.533Z,6.35
2023-01-29T21:35:18.369Z,7.60
2023-01-29T21:38:20.783Z,7.28
2023-01-29T21:41:46.735Z,8.83
2023-01-29T21:44:50.003Z,7.10
2023-01-29T21:47:53.410Z,8.35
2023-01-29T21:50:56.167Z,9.32
2023-01-29T21:53:59.055Z,8.88
2023-01-29T21:57:06.019Z,8.80
2023-01-29T22:00:12.659Z,6.90
2023-01-29T22:03:15.956Z,8.30
2023-01-29T22:06:18.830Z,8.05
2023-01-29T22:09:22.628Z,8.05
2023-01-29T22:12:26.150Z,8.37
2023-01-29T22:15:28.961Z,8.93
2023-01-29T22:18:31.557Z,9.05
2023-01-29T22:21:35.982Z,9.53
2023-01-29T22:24:38.461Z,8.27
2023-01-29T22:27:41.493Z,6.35
2023-01-29T22:30:45.280Z,8.00
2023-01-29T22:33:48.627Z,9.10
2023-01-29T22:36:51.901Z,8.50
2023-01-29T22:39:54.839Z,8.13
2023-01-29T22:42:57.988Z,8.38
2023-01-29T22:46:00.774Z,7.85
2023-01-29T22:49:03.361Z,8.48
2023-01-29T22:52:11.994Z,8.23
2023-01-29T22:55:14.509Z,8.60
2023-01-29T22:58:17.300Z,6.87
2023-01-29T23:01:21.967Z,8.80
2023-01-29T23:04:24.922Z,9.20
2023-01-29T23:07:27.419Z,8.20
2023-01-29T23:10:30.331Z,8.93
2023-01-29T23:13:33.736Z,9.00
2023-01-29T23:16:37.852Z,8.95
2023-01-29T23:19:40.217Z,7.20
2023-01-29T23:22:43.059Z,7.97
2023-01-29T23:26:03.961Z,7.67
2023-01-29T23:29:06.709Z,8.80
2023-01-29T23:32:09.851Z,7.12
2023-01-29T23:35:12.583Z,8.43
2023-01-29T23:38:15.020Z,7.63
2023-01-29T23:41:17.793Z,8.80
2023-01-29T23:44:20.813Z,8.88
2023-01-29T23:47:23.771Z,9.02
2023-01-29T23:50:27.191Z,8.13
2023-01-29T23:53:30.079Z,9.70
2023-01-29T23:56:32.660Z,7.90
2023-01-29T23:59:35.381Z,9.32
